Time;durP1;ratioP1;P1;durP2;ratioP2;P2;SDS_P1;SDS_P2;PMS_P1;PMS_P2;Temp;Humidity;BMP_temperature;BMP_pressure;BME280_temperature;BME280_humidity;BME280_pressure;Samples;Min_cycle;Max_cycle;Signal;HPM_P1;HPM_P2
2022/06/30 00:00:53;;;;;;;5.85;3.08;;;17.70;94.90;;;;;;5042391;28;20017;-47
2022/06/30 00:03:19;;;;;;;2.97;2.75;;;17.70;95.20;;;;;;5047495;28;20029;-47
2022/06/30 00:05:44;;;;;;;2.50;2.30;;;17.60;95.80;;;;;;5040510;28;20265;-48
2022/06/30 00:08:10;;;;;;;2.67;2.47;;;17.60;96.00;;;;;;5049726;28;20478;-47
2022/06/30 00:10:35;;;;;;;3.95;2.95;;;17.60;96.60;;;;;;5039926;28;20025;-48
2022/06/30 00:13:01;;;;;;;2.85;2.55;;;17.50;97.20;;;;;;5050208;28;20064;-50
2022/06/30 00:15:26;;;;;;;5.60;2.90;;;17.50;97.50;;;;;;5039001;28;20017;-50
2022/06/30 00:17:52;;;;;;;3.28;2.65;;;17.50;98.00;;;;;;5050117;28;20081;-49
2022/06/30 00:20:20;;;;;;;3.67;3.03;;;17.50;98.10;;;;;;5042828;28;20275;-47
2022/06/30 00:22:46;;;;;;;3.38;3.08;;;17.40;98.30;;;;;;5041888;28;20390;-48
2022/06/30 00:25:13;;;;;;;3.22;2.83;;;17.40;98.70;;;;;;5042479;28;20074;-47
2022/06/30 00:27:39;;;;;;;3.17;2.88;;;17.40;98.80;;;;;;5042099;28;20031;-48
2022/06/30 00:30:05;;;;;;;4.22;2.83;;;17.40;98.90;;;;;;5043651;28;20025;-49
2022/06/30 00:32:30;;;;;;;5.40;2.80;;;17.50;98.70;;;;;;5041753;28;20133;-49
2022/06/30 00:34:56;;;;;;;5.75;2.58;;;17.50;99.00;;;;;;5045700;28;20116;-47
2022/06/30 00:37:21;;;;;;;3.75;3.17;;;17.40;99.40;;;;;;5045869;28;20013;-49
2022/06/30 00:39:48;;;;;;;4.85;2.42;;;17.40;99.50;;;;;;5030401;28;20051;-47
2022/06/30 00:42:13;;;;;;;4.88;2.97;;;17.40;99.30;;;;;;5036262;28;20284;-49
2022/06/30 00:44:39;;;;;;;2.83;2.60;;;17.50;98.80;;;;;;5031138;28;20560;-47
2022/06/30 00:47:05;;;;;;;5.43;3.03;;;17.50;99.00;;;;;;5034458;28;20314;-48
2022/06/30 00:49:31;;;;;;;3.08;2.75;;;17.50;99.20;;;;;;5041189;28;20497;-46
2022/06/30 00:51:56;;;;;;;2.92;2.72;;;17.50;99.50;;;;;;5048389;28;20033;-47
2022/06/30 00:54:24;;;;;;;2.85;2.55;;;17.50;99.70;;;;;;5040857;28;20025;-47
2022/06/30 00:56:52;;;;;;;3.22;2.78;;;17.40;99.80;;;;;;5046301;28;20053;-48
2022/06/30 00:59:20;;;;;;;3.50;2.92;;;17.40;99.70;;;;;;5043802;28;20025;-47
2022/06/30 01:01:48;;;;;;;3.92;3.10;;;17.40;99.80;;;;;;5030313;28;20071;-46
2022/06/30 01:04:14;;;;;;;5.78;2.63;;;17.40;99.30;;;;;;5037301;28;20095;-47
2022/06/30 01:06:44;;;;;;;3.03;2.72;;;17.40;99.30;;;;;;5047936;28;20029;-46
2022/06/30 01:09:10;;;;;;;6.07;3.20;;;17.40;99.00;;;;;;5050379;28;20382;-45
2022/06/30 01:14:19;;;;;;;5.22;3.13;;;17.40;99.20;;;;;;5044991;28;20285;-52
2022/06/30 01:16:45;;;;;;;3.85;3.00;;;17.40;99.40;;;;;;5040409;28;20522;-46
2022/06/30 01:19:13;;;;;;;5.68;3.22;;;17.40;99.40;;;;;;5041069;28;20594;-44
2022/06/30 01:21:39;;;;;;;3.80;2.92;;;17.40;99.40;;;;;;5049419;28;20036;-46
2022/06/30 01:24:04;;;;;;;4.15;2.60;;;17.30;99.40;;;;;;5048601;28;20033;-47
2022/06/30 01:26:31;;;;;;;3.45;3.03;;;17.30;99.60;;;;;;5048060;28;20147;-47
2022/06/30 01:28:56;;;;;;;3.78;2.80;;;17.30;99.90;;;;;;5036811;28;20018;-47
2022/06/30 01:31:23;;;;;;;4.13;3.10;;;17.20;99.90;;;;;;5045022;28;20025;-48
2022/06/30 01:33:49;;;;;;;5.65;3.25;;;17.10;99.90;;;;;;5049142;28;20109;-45
2022/06/30 01:36:14;;;;;;;3.47;2.90;;;17.10;99.90;;;;;;5048536;28;20032;-45
2022/06/30 01:38:40;;;;;;;7.47;2.67;;;17.00;99.90;;;;;;5049145;28;20025;-46
2022/06/30 01:41:05;;;;;;;3.53;3.05;;;16.90;99.90;;;;;;5049534;28;20557;-47
2022/06/30 01:43:31;;;;;;;5.45;2.60;;;16.90;99.90;;;;;;5039999;28;20096;-48
2022/06/30 01:45:56;;;;;;;3.58;3.28;;;16.90;99.90;;;;;;5040418;28;20047;-45
2022/06/30 01:48:22;;;;;;;4.25;3.28;;;16.90;99.90;;;;;;5041284;28;20051;-46
2022/06/30 01:50:47;;;;;;;3.60;2.90;;;16.90;99.90;;;;;;5039474;28;20033;-46
2022/06/30 01:53:12;;;;;;;2.90;2.70;;;16.90;99.90;;;;;;5044168;28;20036;-45
2022/06/30 01:55:38;;;;;;;4.28;3.05;;;16.90;99.90;;;;;;5016645;28;20030;-44
2022/06/30 01:58:04;;;;;;;3.92;2.88;;;16.90;99.90;;;;;;5023798;28;20440;-45
2022/06/30 02:00:30;;;;;;;4.80;3.40;;;16.80;99.90;;;;;;5033067;28;20021;-45
2022/06/30 02:02:56;;;;;;;4.68;3.05;;;16.80;99.90;;;;;;5026815;28;20045;-45
2022/06/30 02:05:23;;;;;;;3.13;2.78;;;16.80;99.90;;;;;;5027650;28;20113;-45
2022/06/30 02:07:48;;;;;;;4.20;2.55;;;16.80;99.90;;;;;;5039592;28;20037;-46
2022/06/30 02:10:18;;;;;;;4.00;2.95;;;16.80;99.90;;;;;;5048375;28;20545;-45
2022/06/30 02:12:46;;;;;;;4.55;3.25;;;16.80;99.90;;;;;;5044684;28;20033;-46
2022/06/30 02:15:21;;;;;;;5.53;3.40;;;16.80;99.90;;;;;;5038182;28;20494;-45
2022/06/30 02:17:49;;;;;;;4.93;3.95;;;16.80;99.90;;;;;;5048235;28;20025;-45
2022/06/30 02:20:20;;;;;;;4.45;3.17;;;16.80;99.90;;;;;;5047125;28;20090;-45
2022/06/30 02:22:47;;;;;;;3.40;3.03;;;16.80;99.90;;;;;;5048468;28;20031;-46
2022/06/30 02:25:12;;;;;;;5.55;3.30;;;16.80;99.90;;;;;;5043915;28;20036;-46
2022/06/30 02:27:38;;;;;;;2.90;2.60;;;16.80;99.90;;;;;;5037920;28;20379;-46
2022/06/30 02:30:06;;;;;;;3.47;3.17;;;16.80;99.90;;;;;;5048654;28;20053;-46
2022/06/30 02:32:31;;;;;;;3.72;2.97;;;16.80;99.90;;;;;;5048006;28;20029;-46
2022/06/30 02:34:57;;;;;;;3.75;3.17;;;16.80;99.90;;;;;;5042247;28;20050;-45
2022/06/30 02:37:23;;;;;;;4.53;3.25;;;16.80;99.90;;;;;;5027249;28;20052;-45
2022/06/30 02:39:48;;;;;;;5.47;3.10;;;16.70;99.90;;;;;;5017733;28;20021;-45
2022/06/30 02:42:14;;;;;;;4.45;3.60;;;16.80;99.90;;;;;;5018275;28;20029;-45
2022/06/30 02:44:39;;;;;;;5.35;3.30;;;16.70;99.90;;;;;;5008045;28;20487;-44
2022/06/30 02:47:05;;;;;;;4.65;3.10;;;16.70;99.90;;;;;;5008686;28;20041;-45
2022/06/30 02:49:30;;;;;;;4.90;3.05;;;16.70;99.90;;;;;;5008453;28;20529;-45
2022/06/30 02:51:56;;;;;;;4.10;3.70;;;16.70;99.90;;;;;;5007152;28;20044;-45
2022/06/30 02:54:21;;;;;;;4.55;3.42;;;16.60;99.90;;;;;;5007690;28;20155;-45
2022/06/30 02:56:47;;;;;;;5.00;3.80;;;16.60;99.90;;;;;;5008540;28;20516;-44
2022/06/30 02:59:13;;;;;;;4.20;3.42;;;16.60;99.90;;;;;;5008622;28;20034;-43
2022/06/30 03:01:39;;;;;;;4.60;3.70;;;16.60;99.90;;;;;;5015571;28;20091;-44
2022/06/30 03:04:05;;;;;;;5.40;3.30;;;16.60;99.90;;;;;;5039343;28;20063;-44
2022/06/30 03:06:33;;;;;;;4.78;3.25;;;16.60;99.90;;;;;;5048185;28;20456;-45
2022/06/30 03:09:00;;;;;;;3.80;3.35;;;16.60;99.90;;;;;;5047930;28;20025;-44
2022/06/30 03:11:26;;;;;;;6.05;3.45;;;16.60;99.90;;;;;;5048024;28;20052;-44
2022/06/30 03:13:53;;;;;;;6.03;4.03;;;16.60;99.90;;;;;;5044441;28;20506;-44
2022/06/30 03:16:19;;;;;;;5.40;3.35;;;16.60;99.90;;;;;;5035848;28;20033;-45
2022/06/30 03:18:45;;;;;;;5.45;3.42;;;16.60;99.90;;;;;;5045334;28;20017;-45
2022/06/30 03:21:11;;;;;;;5.57;3.95;;;16.60;99.90;;;;;;5048972;28;20398;-45
2022/06/30 03:23:37;;;;;;;8.05;3.47;;;16.60;99.90;;;;;;5049938;28;20025;-44
2022/06/30 03:26:03;;;;;;;5.60;3.47;;;16.60;99.90;;;;;;5048737;28;20044;-44
2022/06/30 03:28:29;;;;;;;5.55;3.83;;;16.60;99.90;;;;;;5039489;28;20036;-46
2022/06/30 03:30:54;;;;;;;4.53;3.65;;;16.60;99.90;;;;;;5051534;28;20033;-46
2022/06/30 03:33:20;;;;;;;5.10;3.70;;;16.60;99.90;;;;;;5039764;28;20022;-44
2022/06/30 03:35:46;;;;;;;4.72;3.60;;;16.60;99.90;;;;;;5049497;28;20112;-43
2022/06/30 03:38:12;;;;;;;5.13;3.58;;;16.60;99.90;;;;;;5039465;28;20028;-44
2022/06/30 03:40:37;;;;;;;8.18;3.50;;;16.60;99.90;;;;;;5048890;28;20155;-44
2022/06/30 03:43:04;;;;;;;3.80;3.50;;;16.60;99.90;;;;;;5042875;28;20032;-45
2022/06/30 03:45:29;;;;;;;3.13;2.83;;;16.50;99.90;;;;;;5041852;28;20057;-45
2022/06/30 03:47:55;;;;;;;7.50;3.53;;;16.60;99.90;;;;;;5048051;28;20492;-45
2022/06/30 03:50:20;;;;;;;4.93;3.72;;;16.60;99.90;;;;;;5042740;28;20028;-48
2022/06/30 03:52:46;;;;;;;4.97;3.83;;;16.60;99.90;;;;;;5051134;28;20037;-47
2022/06/30 03:55:12;;;;;;;4.47;3.70;;;16.60;99.90;;;;;;5050518;28;20029;-44
2022/06/30 03:57:38;;;;;;;5.38;3.58;;;16.60;99.90;;;;;;5040340;28;20025;-44
2022/06/30 04:00:05;;;;;;;6.63;3.42;;;16.60;99.90;;;;;;5042879;28;20031;-44
2022/06/30 04:02:31;;;;;;;5.30;3.55;;;16.60;99.90;;;;;;5050755;28;20029;-44
2022/06/30 04:04:56;;;;;;;5.75;3.50;;;16.60;99.90;;;;;;5048846;28;20082;-44
2022/06/30 04:07:22;;;;;;;3.88;3.38;;;16.60;99.90;;;;;;5050637;28;20029;-44
2022/06/30 04:09:47;;;;;;;6.00;3.97;;;16.60;99.90;;;;;;5050775;28;20024;-45
2022/06/30 04:12:13;;;;;;;5.13;3.63;;;16.60;99.90;;;;;;5044440;28;20429;-44
2022/06/30 04:14:40;;;;;;;4.18;3.78;;;16.70;99.90;;;;;;5039627;28;20284;-46
2022/06/30 04:17:05;;;;;;;6.18;3.95;;;16.60;99.90;;;;;;5050469;28;20379;-46
2022/06/30 04:19:30;;;;;;;4.20;3.78;;;16.70;99.90;;;;;;5050455;28;20025;-45
2022/06/30 04:21:56;;;;;;;4.10;3.67;;;16.70;99.90;;;;;;5050347;28;20017;-45
2022/06/30 04:24:22;;;;;;;6.25;3.50;;;16.70;99.90;;;;;;5048112;28;20021;-45
2022/06/30 04:26:48;;;;;;;4.63;3.78;;;16.70;99.90;;;;;;5042168;28;20068;-44
2022/06/30 04:29:13;;;;;;;6.53;3.33;;;16.70;99.90;;;;;;5050246;28;20498;-46
2022/06/30 04:34:23;;;;;;;3.88;3.47;;;16.80;99.90;;;;;;5041212;28;20031;-44
2022/06/30 04:36:48;;;;;;;4.68;3.17;;;16.80;99.90;;;;;;5050102;28;20033;-45
2022/06/30 04:39:14;;;;;;;4.57;3.60;;;16.80;99.90;;;;;;5049774;28;20033;-44
2022/06/30 04:41:39;;;;;;;4.95;3.70;;;16.80;99.90;;;;;;5050066;28;20386;-45
2022/06/30 04:44:05;;;;;;;5.78;3.90;;;16.80;99.90;;;;;;5046716;28;20056;-44
2022/06/30 04:46:31;;;;;;;5.13;3.58;;;16.80;99.90;;;;;;5041943;28;20028;-46
2022/06/30 04:48:57;;;;;;;10.07;3.63;;;16.90;99.90;;;;;;5050199;28;20028;-45
2022/06/30 04:51:23;;;;;;;5.22;3.90;;;16.90;99.90;;;;;;5049773;28;20481;-46
2022/06/30 04:53:50;;;;;;;8.55;4.35;;;16.90;99.90;;;;;;5049433;28;20032;-46
2022/06/30 04:56:17;;;;;;;5.40;3.42;;;17.00;99.90;;;;;;5049438;28;20017;-45
2022/06/30 04:58:43;;;;;;;6.10;4.15;;;17.00;99.90;;;;;;5040459;28;20477;-45
2022/06/30 05:01:09;;;;;;;6.00;3.97;;;17.10;99.90;;;;;;5043782;28;20517;-44
2022/06/30 05:03:35;;;;;;;4.43;3.75;;;17.20;99.90;;;;;;5049584;28;20056;-45
2022/06/30 05:06:00;;;;;;;5.68;4.13;;;17.20;99.90;;;;;;5045767;28;22472;-46
2022/06/30 05:08:27;;;;;;;5.70;3.85;;;17.20;99.90;;;;;;5037542;28;20029;-45
2022/06/30 05:10:53;;;;;;;6.40;3.50;;;17.30;99.90;;;;;;5047012;28;20271;-45
2022/06/30 05:13:18;;;;;;;6.50;4.60;;;17.40;99.90;;;;;;5037248;28;20098;-45
2022/06/30 05:15:45;;;;;;;4.80;4.03;;;17.50;99.90;;;;;;5047680;28;20041;-45
2022/06/30 05:18:11;;;;;;;5.40;4.10;;;17.50;99.90;;;;;;5037405;28;20020;-46
2022/06/30 05:20:37;;;;;;;5.47;4.35;;;17.60;99.90;;;;;;5047254;28;20107;-46
2022/06/30 05:23:03;;;;;;;5.70;4.38;;;17.60;99.90;;;;;;5038444;28;20159;-45
2022/06/30 05:28:13;;;;;;;8.80;4.30;;;17.80;99.90;;;;;;5039625;28;20087;-46
2022/06/30 05:30:39;;;;;;;5.80;3.92;;;17.90;99.90;;;;;;5046831;28;20025;-45
2022/06/30 05:33:05;;;;;;;3.92;3.53;;;18.00;99.90;;;;;;5041399;28;20052;-45
2022/06/30 05:35:30;;;;;;;5.70;4.60;;;18.10;99.90;;;;;;5039764;28;20028;-45
2022/06/30 05:37:55;;;;;;;7.43;3.65;;;18.30;99.90;;;;;;5045073;28;20020;-45
2022/06/30 05:40:21;;;;;;;7.25;4.68;;;18.30;99.90;;;;;;5040406;28;20458;-45
2022/06/30 05:42:46;;;;;;;5.45;4.10;;;18.40;99.90;;;;;;5045746;28;20033;-46
2022/06/30 05:45:12;;;;;;;6.65;3.47;;;18.50;99.90;;;;;;5039067;28;20104;-46
2022/06/30 05:47:48;;;;;;;5.38;3.65;;;18.60;99.90;;;;;;5046793;28;20025;-45
2022/06/30 05:50:14;;;;;;;6.97;4.18;;;18.70;99.90;;;;;;5040450;28;20025;-46
2022/06/30 05:52:41;;;;;;;4.20;3.78;;;18.80;99.90;;;;;;5046911;28;20025;-45
2022/06/30 05:55:07;;;;;;;6.20;4.28;;;18.80;99.90;;;;;;5036367;28;20094;-45
2022/06/30 05:57:45;;;;;;;6.72;4.32;;;19.00;99.90;;;;;;5045667;28;20025;-47
2022/06/30 06:00:11;;;;;;;4.40;4.00;;;19.10;99.90;;;;;;5042018;28;20358;-46
2022/06/30 06:02:37;;;;;;;5.50;4.00;;;19.20;99.90;;;;;;5040112;28;20036;-48
2022/06/30 06:05:03;;;;;;;6.10;4.30;;;19.20;99.90;;;;;;5042841;28;20394;-46
2022/06/30 06:07:28;;;;;;;8.95;4.50;;;19.30;99.90;;;;;;5040126;28;20021;-45
2022/06/30 06:09:54;;;;;;;7.07;4.65;;;19.50;99.90;;;;;;5048610;28;20091;-48
2022/06/30 06:12:21;;;;;;;6.40;4.47;;;19.60;99.90;;;;;;5036650;28;20274;-46
2022/06/30 06:14:47;;;;;;;7.03;3.88;;;19.70;99.90;;;;;;5047016;28;20013;-46
2022/06/30 06:17:12;;;;;;;9.55;4.00;;;19.70;99.90;;;;;;5040632;28;20079;-46
2022/06/30 06:19:38;;;;;;;5.30;3.72;;;19.70;99.90;;;;;;5039837;28;20100;-46
2022/06/30 06:22:03;;;;;;;4.10;3.50;;;19.80;99.90;;;;;;5046424;28;20087;-46
2022/06/30 06:24:29;;;;;;;5.75;4.20;;;19.80;99.90;;;;;;5039456;28;20044;-49
2022/06/30 06:26:54;;;;;;;5.40;4.13;;;20.00;99.90;;;;;;5048270;28;20033;-46
2022/06/30 06:29:21;;;;;;;8.75;3.92;;;20.00;99.90;;;;;;5048323;28;20025;-46
2022/06/30 06:31:47;;;;;;;7.38;3.78;;;20.10;99.90;;;;;;5045878;28;20188;-47
2022/06/30 06:34:13;;;;;;;6.03;3.75;;;20.20;99.90;;;;;;5039207;28;20021;-47
2022/06/30 06:36:39;;;;;;;5.90;3.80;;;20.30;99.90;;;;;;5046932;28;20024;-47
2022/06/30 06:39:04;;;;;;;10.18;4.00;;;20.50;99.90;;;;;;5042047;28;20017;-46
2022/06/30 06:41:31;;;;;;;5.97;4.18;;;20.70;99.90;;;;;;5039862;28;20062;-46
2022/06/30 06:43:57;;;;;;;6.47;3.80;;;20.90;99.70;;;;;;5046853;28;20056;-47
2022/06/30 06:46:26;;;;;;;7.20;4.30;;;21.00;99.50;;;;;;5047697;28;20056;-46
2022/06/30 06:48:53;;;;;;;5.22;3.63;;;21.20;99.40;;;;;;5037697;28;20021;-47
2022/06/30 06:51:19;;;;;;;5.20;3.40;;;21.30;99.30;;;;;;5028597;28;20034;-47
2022/06/30 06:53:44;;;;;;;7.00;4.45;;;21.40;98.90;;;;;;5027887;28;20109;-45
2022/06/30 06:56:10;;;;;;;7.50;4.50;;;21.50;98.90;;;;;;5028664;28;20021;-47
2022/06/30 06:58:36;;;;;;;6.00;3.90;;;21.70;98.30;;;;;;5031942;28;20490;-46
2022/06/30 07:01:01;;;;;;;6.22;3.70;;;21.90;98.10;;;;;;5032044;28;20101;-47
2022/06/30 07:03:29;;;;;;;7.38;3.60;;;22.20;97.50;;;;;;5031957;28;20024;-47
2022/06/30 07:05:54;;;;;;;5.15;4.10;;;22.30;97.30;;;;;;5031224;28;20495;-47
2022/06/30 07:08:20;;;;;;;4.50;3.95;;;22.50;96.80;;;;;;5039086;28;20044;-46
2022/06/30 07:10:45;;;;;;;6.47;3.80;;;22.60;96.40;;;;;;5050381;28;20036;-45
2022/06/30 07:13:11;;;;;;;5.15;3.40;;;22.80;96.00;;;;;;5051617;28;20426;-48
2022/06/30 07:15:36;;;;;;;7.35;4.18;;;23.00;95.90;;;;;;5050917;28;20025;-46
2022/06/30 07:18:03;;;;;;;3.78;3.45;;;23.20;95.50;;;;;;5051107;28;20275;-47
2022/06/30 07:20:28;;;;;;;9.48;3.33;;;23.40;95.10;;;;;;5050813;28;20099;-45
2022/06/30 07:22:54;;;;;;;5.07;3.72;;;23.40;93.80;;;;;;5051360;28;20108;-46
2022/06/30 07:25:20;;;;;;;9.45;4.30;;;23.60;93.90;;;;;;5050375;28;20028;-47
2022/06/30 07:27:46;;;;;;;7.30;3.75;;;23.70;93.70;;;;;;5043515;28;20025;-44
2022/06/30 07:30:12;;;;;;;4.55;3.70;;;23.50;93.20;;;;;;5044426;28;20021;-45
2022/06/30 07:32:38;;;;;;;4.70;3.97;;;23.70;93.30;;;;;;5050013;28;20021;-46
2022/06/30 07:35:05;;;;;;;5.13;3.72;;;23.90;93.10;;;;;;5049378;28;20044;-47
2022/06/30 07:37:30;;;;;;;4.35;3.85;;;24.10;93.20;;;;;;5049807;28;20021;-46
2022/06/30 07:39:56;;;;;;;4.70;4.18;;;24.30;93.00;;;;;;5048310;28;20033;-45
2022/06/30 07:42:21;;;;;;;8.35;4.00;;;24.70;91.60;;;;;;5042246;28;20045;-46
2022/06/30 07:44:47;;;;;;;5.97;3.75;;;24.70;91.00;;;;;;5041296;28;20577;-49
2022/06/30 07:47:12;;;;;;;4.68;3.90;;;24.70;91.40;;;;;;5051052;28;20087;-46
2022/06/30 07:49:40;;;;;;;7.20;4.03;;;24.90;91.10;;;;;;5051024;28;20390;-45
2022/06/30 07:52:06;;;;;;;8.25;4.93;;;25.20;90.80;;;;;;5046280;28;20020;-46
2022/06/30 07:54:32;;;;;;;6.28;5.05;;;25.50;90.50;;;;;;5041762;28;20524;-45
2022/06/30 07:56:58;;;;;;;8.32;5.40;;;25.70;90.10;;;;;;5050960;28;20025;-46
2022/06/30 07:59:23;;;;;;;8.18;5.40;;;26.00;90.40;;;;;;5051032;28;20497;-45
2022/06/30 08:01:49;;;;;;;6.82;5.80;;;26.20;89.40;;;;;;5051027;28;20228;-48
2022/06/30 08:04:17;;;;;;;5.68;5.07;;;26.50;87.40;;;;;;5048786;28;20033;-46
2022/06/30 08:06:42;;;;;;;7.43;6.25;;;27.10;87.40;;;;;;5048976;28;20139;-48
2022/06/30 08:09:08;;;;;;;8.88;6.30;;;27.20;85.60;;;;;;5050456;28;20104;-46
2022/06/30 08:11:33;;;;;;;8.90;6.25;;;26.70;86.40;;;;;;5041626;28;20022;-46
2022/06/30 08:13:59;;;;;;;7.88;5.43;;;26.70;87.00;;;;;;5040465;28;20029;-47
2022/06/30 08:16:25;;;;;;;7.80;5.57;;;27.10;86.10;;;;;;5050747;28;20670;-45
2022/06/30 08:18:50;;;;;;;8.32;5.65;;;27.60;84.90;;;;;;5050347;28;20032;-46
2022/06/30 08:21:16;;;;;;;5.88;5.30;;;27.80;83.60;;;;;;5050820;28;20100;-50
2022/06/30 08:23:43;;;;;;;7.95;5.68;;;28.50;83.00;;;;;;5050067;28;20017;-47
2022/06/30 08:26:08;;;;;;;6.13;5.53;;;28.90;80.80;;;;;;5037924;28;20024;-50
2022/06/30 08:28:34;;;;;;;6.05;5.38;;;30.50;77.40;;;;;;5047644;28;20020;-48
2022/06/30 08:31:03;;;;;;;8.40;5.55;;;31.50;74.00;;;;;;5040541;28;20108;-51
2022/06/30 08:33:29;;;;;;;8.68;5.28;;;32.70;70.80;;;;;;5046685;28;20021;-47
2022/06/30 08:35:54;;;;;;;7.65;5.18;;;33.30;68.90;;;;;;5040807;28;20079;-48
2022/06/30 08:38:21;;;;;;;10.00;5.15;;;33.30;68.00;;;;;;5045029;28;20426;-47
2022/06/30 08:43:32;;;;;;;7.35;4.95;;;33.60;66.10;;;;;;5041161;28;20036;-50
2022/06/30 08:45:59;;;;;;;8.68;4.90;;;33.90;64.20;;;;;;5041613;28;20025;-48
2022/06/30 08:48:25;;;;;;;4.70;4.20;;;35.50;61.70;;;;;;5049785;28;20550;-49
2022/06/30 08:51:05;;;;;;;7.57;5.22;;;35.80;59.80;;;;;;5049832;28;20021;-50
2022/06/30 08:53:47;;;;;;;9.35;4.93;;;35.50;59.60;;;;;;5049792;28;20032;-48
2022/06/30 08:56:13;;;;;;;9.50;4.78;;;35.80;59.20;;;;;;5049339;28;20039;-47
2022/06/30 08:58:40;;;;;;;5.25;4.10;;;36.30;57.50;;;;;;5049380;28;20048;-48
2022/06/30 09:01:06;;;;;;;8.18;4.75;;;36.60;56.90;;;;;;5049286;28;20029;-47
2022/06/30 09:03:34;;;;;;;7.68;5.00;;;37.40;55.20;;;;;;5049455;28;20424;-48
2022/06/30 09:06:00;;;;;;;6.95;4.30;;;38.40;54.00;;;;;;5048876;28;20021;-51
2022/06/30 09:08:26;;;;;;;6.50;4.45;;;37.90;53.80;;;;;;5049279;28;20087;-48
2022/06/30 09:10:55;;;;;;;5.82;4.43;;;38.20;53.40;;;;;;5047792;28;20105;-52
2022/06/30 09:13:21;;;;;;;5.15;4.35;;;38.80;52.10;;;;;;5037111;28;20251;-51
2022/06/30 09:15:49;;;;;;;6.82;4.10;;;38.00;52.50;;;;;;5046060;28;20025;-48
2022/06/30 09:18:26;;;;;;;6.88;4.32;;;38.20;52.20;;;;;;5048749;28;20024;-48
2022/06/30 09:20:52;;;;;;;5.85;4.40;;;38.30;52.40;;;;;;5040932;28;20053;-48
2022/06/30 09:23:29;;;;;;;4.88;4.07;;;39.10;50.40;;;;;;5044396;28;20048;-50
2022/06/30 09:25:58;;;;;;;5.65;4.60;;;38.50;51.00;;;;;;5048523;28;20529;-50
2022/06/30 09:28:55;;;;;;;7.50;4.47;;;39.50;50.30;;;;;;5049270;28;20039;-50
2022/06/30 09:31:35;;;;;;;5.65;4.22;;;39.80;49.70;;;;;;5043262;28;20941;-48
2022/06/30 09:34:21;;;;;;;5.05;4.55;;;40.00;48.90;;;;;;5028102;28;20543;-52
2022/06/30 09:36:49;;;;;;;6.03;4.00;;;40.10;48.00;;;;;;5029120;28;20025;-47
2022/06/30 09:39:16;;;;;;;8.27;3.92;;;40.20;48.00;;;;;;5028834;28;20021;-50
2022/06/30 09:41:43;;;;;;;5.50;4.88;;;40.00;48.20;;;;;;5028989;28;20026;-48
2022/06/30 09:44:20;;;;;;;5.57;4.70;;;40.30;47.60;;;;;;5026887;28;20407;-49
2022/06/30 09:46:59;;;;;;;5.63;4.22;;;39.90;48.30;;;;;;5024789;28;20506;-47
2022/06/30 09:49:32;;;;;;;5.18;4.68;;;40.50;47.50;;;;;;5048728;28;20021;-46
2022/06/30 09:52:02;;;;;;;7.47;5.05;;;40.60;46.90;;;;;;5007258;28;20025;-49
2022/06/30 09:54:30;;;;;;;4.80;4.38;;;39.90;47.90;;;;;;5007232;28;20034;-49
2022/06/30 09:57:07;;;;;;;5.90;5.40;;;39.80;47.60;;;;;;5007800;28;20022;-49
2022/06/30 09:59:36;;;;;;;7.82;5.00;;;38.60;48.70;;;;;;5007555;28;20083;-46
2022/06/30 10:02:06;;;;;;;;;;;39.90;47.80;;;;;;5008204;28;20230;-49
2022/06/30 10:04:31;;;;;;;5.82;5.22;;;40.60;46.80;;;;;;5029111;28;19988;-49
2022/06/30 10:06:57;;;;;;;5.47;4.70;;;40.10;48.30;;;;;;5039487;28;20123;-50
2022/06/30 10:09:25;;;;;;;6.40;5.15;;;40.60;46.70;;;;;;5047318;28;20029;-47
2022/06/30 10:11:52;;;;;;;6.63;4.90;;;41.30;45.80;;;;;;5041206;28;20036;-48
2022/06/30 10:14:18;;;;;;;5.55;4.68;;;40.90;46.00;;;;;;5038016;28;20083;-48
2022/06/30 10:16:44;;;;;;;5.85;4.78;;;40.50;47.20;;;;;;5047561;28;20029;-50
2022/06/30 10:19:10;;;;;;;7.25;5.38;;;40.30;47.20;;;;;;5046181;28;20506;-50
2022/06/30 10:21:37;;;;;;;5.53;4.95;;;40.60;46.30;;;;;;5042164;28;20148;-48
2022/06/30 10:24:05;;;;;;;8.65;5.65;;;41.50;46.00;;;;;;5038261;28;20028;-48
2022/06/30 10:29:15;;;;;;;5.70;4.63;;;39.70;47.10;;;;;;5038243;28;20076;-47
2022/06/30 10:31:55;;;;;;;5.40;4.90;;;40.20;46.50;;;;;;5048981;28;20065;-49
2022/06/30 10:34:24;;;;;;;6.68;4.75;;;38.90;47.70;;;;;;5044444;28;20017;-49
2022/06/30 10:37:03;;;;;;;6.63;5.30;;;39.90;47.20;;;;;;5041964;28;20009;-50
2022/06/30 10:39:41;;;;;;;7.93;5.45;;;40.80;45.90;;;;;;5044319;28;20044;-49
2022/06/30 10:42:07;;;;;;;13.43;5.35;;;40.10;46.70;;;;;;5042961;28;20041;-50
2022/06/30 10:44:32;;;;;;;7.72;5.03;;;40.40;46.70;;;;;;5045075;28;20068;-51
2022/06/30 10:46:58;;;;;;;5.65;5.05;;;40.50;46.80;;;;;;5042288;28;20518;-50
2022/06/30 10:49:26;;;;;;;9.00;4.93;;;41.10;45.60;;;;;;5051548;28;20097;-48
2022/06/30 10:52:16;;;;;;;5.65;5.07;;;40.90;45.70;;;;;;5039021;28;20043;-49
2022/06/30 10:54:45;;;;;;;6.47;4.75;;;41.80;44.50;;;;;;5038087;28;20038;-50
2022/06/30 10:57:12;;;;;;;5.57;4.93;;;41.10;45.20;;;;;;5038412;28;20018;-50
2022/06/30 10:59:41;;;;;;;6.47;4.70;;;41.20;45.40;;;;;;5048656;28;20278;-50
2022/06/30 11:02:07;;;;;;;4.88;4.38;;;41.30;45.70;;;;;;5043598;28;20104;-50
2022/06/30 11:04:34;;;;;;;6.00;4.90;;;41.60;44.70;;;;;;5042463;28;20160;-50
2022/06/30 11:07:06;;;;;;;6.53;4.80;;;40.40;45.60;;;;;;5043814;28;20021;-49
2022/06/30 11:09:44;;;;;;;5.10;4.60;;;41.30;45.50;;;;;;5042748;28;20021;-50
2022/06/30 11:12:11;;;;;;;5.53;4.72;;;41.50;44.40;;;;;;5045319;28;20033;-49
2022/06/30 11:14:40;;;;;;;5.68;4.68;;;41.00;46.00;;;;;;5039381;28;20079;-50
2022/06/30 11:17:17;;;;;;;5.10;4.70;;;41.60;45.30;;;;;;5048144;28;20029;-51
2022/06/30 11:19:43;;;;;;;8.25;5.47;;;40.80;45.50;;;;;;5040861;28;20013;-49
2022/06/30 11:22:12;;;;;;;6.57;5.10;;;41.30;44.70;;;;;;5050427;28;20055;-50
2022/06/30 11:24:40;;;;;;;5.68;4.60;;;41.00;45.10;;;;;;5039193;28;20022;-48
2022/06/30 11:27:21;;;;;;;5.35;4.60;;;41.40;44.50;;;;;;5050448;28;20095;-51
2022/06/30 11:29:48;;;;;;;5.93;5.38;;;41.40;43.70;;;;;;5035498;28;20079;-49
2022/06/30 11:32:14;;;;;;;6.13;5.25;;;40.80;44.90;;;;;;5034114;28;20049;-48
2022/06/30 11:34:41;;;;;;;5.97;5.38;;;41.60;43.90;;;;;;5030831;28;20026;-49
2022/06/30 11:37:10;;;;;;;5.88;4.90;;;40.80;44.50;;;;;;5040969;28;20025;-50
2022/06/30 11:39:35;;;;;;;;;;;40.50;45.40;;;;;;5027486;28;20084;-51
2022/06/30 11:42:11;;;;;;;7.15;5.40;;;40.00;45.90;;;;;;5037143;28;19909;-48
2022/06/30 11:44:41;;;;;;;5.65;5.15;;;40.90;44.90;;;;;;5029811;28;20049;-51
2022/06/30 11:47:10;;;;;;;8.73;4.97;;;40.50;45.00;;;;;;5041520;28;20053;-50
2022/06/30 11:49:44;;;;;;;7.18;5.20;;;39.40;45.70;;;;;;5047265;28;20017;-51
2022/06/30 11:52:15;;;;;;;6.95;5.35;;;38.30;47.10;;;;;;5040950;28;20390;-49
2022/06/30 11:54:59;;;;;;;5.60;5.00;;;37.20;47.80;;;;;;5049430;28;20021;-48
2022/06/30 11:57:27;;;;;;;5.80;5.15;;;36.70;49.20;;;;;;5034054;28;20096;-47
2022/06/30 11:59:57;;;;;;;9.75;5.72;;;36.20;50.60;;;;;;5049273;28;20030;-48
2022/06/30 12:02:23;;;;;;;7.22;6.05;;;35.70;50.80;;;;;;5039119;28;20025;-47
2022/06/30 12:04:55;;;;;;;6.70;5.32;;;35.10;51.70;;;;;;5048508;28;20032;-47
2022/06/30 12:07:21;;;;;;;6.20;5.57;;;34.90;52.80;;;;;;5044532;28;20021;-47
2022/06/30 12:09:47;;;;;;;7.30;5.78;;;34.20;53.10;;;;;;5040921;28;20103;-47
2022/06/30 12:12:13;;;;;;;7.63;6.07;;;33.30;54.90;;;;;;5045311;28;20120;-49
2022/06/30 12:14:40;;;;;;;6.78;6.05;;;33.30;55.20;;;;;;5040012;28;20021;-46
2022/06/30 12:17:07;;;;;;;8.05;6.72;;;33.10;56.00;;;;;;5042490;28;20108;-47
2022/06/30 12:19:34;;;;;;;6.32;5.72;;;33.00;56.00;;;;;;5037956;28;20108;-47
2022/06/30 12:22:02;;;;;;;9.45;6.28;;;33.10;55.50;;;;;;5048493;28;20211;-48
2022/06/30 12:24:27;;;;;;;9.20;6.70;;;33.70;55.10;;;;;;5033570;28;20030;-48
2022/06/30 12:26:56;;;;;;;8.13;5.88;;;34.00;53.80;;;;;;5009347;28;20037;-46
2022/06/30 12:29:23;;;;;;;7.25;5.93;;;33.70;54.10;;;;;;5031228;28;20449;-47
2022/06/30 12:32:08;;;;;;;7.15;6.20;;;32.80;54.80;;;;;;5038980;28;20086;-47
2022/06/30 12:34:55;;;;;;;9.32;5.70;;;32.10;56.20;;;;;;5045141;28;20033;-47
2022/06/30 12:37:32;;;;;;;11.32;6.75;;;31.80;56.70;;;;;;5040821;28;20096;-47
2022/06/30 12:40:00;;;;;;;12.73;7.28;;;31.60;58.10;;;;;;5048974;28;20025;-49
2022/06/30 12:42:37;;;;;;;12.80;7.80;;;31.80;59.00;;;;;;5048722;28;20172;-46
2022/06/30 12:45:03;;;;;;;9.48;6.60;;;32.40;58.50;;;;;;5038520;28;20028;-47
2022/06/30 12:47:30;;;;;;;9.82;7.50;;;33.30;57.00;;;;;;5041479;28;20020;-47
2022/06/30 12:49:55;;;;;;;9.77;7.13;;;33.80;55.60;;;;;;5049906;28;20119;-50
2022/06/30 12:52:22;;;;;;;10.27;7.53;;;34.00;54.20;;;;;;5049644;28;20104;-50
2022/06/30 12:54:58;;;;;;;10.23;6.88;;;34.10;53.90;;;;;;5048061;28;20079;-47
2022/06/30 12:57:27;;;;;;;7.50;6.53;;;34.40;53.80;;;;;;5049776;28;20029;-50
2022/06/30 12:59:55;;;;;;;9.90;6.38;;;34.30;54.30;;;;;;5049255;28;20086;-48
2022/06/30 13:02:33;;;;;;;8.07;6.63;;;34.50;53.80;;;;;;5047902;28;20442;-50